Time;durP1;ratioP1;P1;durP2;ratioP2;P2;SDS_P1;SDS_P2;PMS_P1;PMS_P2;Temp;Humidity;BMP_temperature;BMP_pressure;BME280_temperature;BME280_humidity;BME280_pressure;Samples;Min_cycle;Max_cycle;Signal;HPM_P1;HPM_P2
2022/02/27 00:01:13;;;;;;;9.43;4.87;;;4.80;60.00;;;;;;5056890;28;20021;-84
2022/02/27 00:03:38;;;;;;;9.47;4.27;;;4.80;60.10;;;;;;5075520;28;20039;-84
2022/02/27 00:06:05;;;;;;;14.80;3.83;;;4.80;60.00;;;;;;5053687;28;20094;-84
2022/02/27 00:08:31;;;;;;;13.60;4.87;;;4.80;59.70;;;;;;5067806;28;20065;-83
2022/02/27 00:10:57;;;;;;;7.03;3.93;;;4.80;59.50;;;;;;5056763;28;20450;-84
2022/02/27 00:13:22;;;;;;;16.87;4.67;;;4.80;59.50;;;;;;5041273;28;20486;-84
2022/02/27 00:15:48;;;;;;;8.83;4.53;;;4.70;59.60;;;;;;5065246;28;20166;-84
2022/02/27 00:18:14;;;;;;;11.83;4.70;;;4.70;59.60;;;;;;5067916;28;20039;-82
2022/02/27 00:20:40;;;;;;;9.57;4.33;;;4.70;59.50;;;;;;5055463;28;20035;-84
2022/02/27 00:23:06;;;;;;;12.07;4.77;;;4.70;59.50;;;;;;5043414;28;20120;-83
2022/02/27 00:25:32;;;;;;;12.43;5.50;;;4.70;59.50;;;;;;5078138;28;20680;-84
2022/02/27 00:27:59;;;;;;;12.77;5.70;;;4.70;59.50;;;;;;5061110;28;20025;-84
2022/02/27 00:30:25;;;;;;;15.77;6.57;;;4.70;59.50;;;;;;5053962;28;20032;-83
2022/02/27 00:32:51;;;;;;;15.57;6.20;;;4.70;59.60;;;;;;5053309;28;20101;-84
2022/02/27 00:35:16;;;;;;;14.00;6.40;;;4.70;59.70;;;;;;5057942;28;20035;-84
2022/02/27 00:37:44;;;;;;;16.83;8.30;;;4.70;59.90;;;;;;5052501;28;20036;-84
2022/02/27 00:40:10;;;;;;;20.30;7.80;;;4.80;60.00;;;;;;5052958;28;20440;-85
2022/02/27 00:42:36;;;;;;;13.50;7.97;;;4.80;59.90;;;;;;5072680;28;20086;-85
2022/02/27 00:45:03;;;;;;;14.10;7.37;;;4.80;60.00;;;;;;5053278;28;20029;-85
2022/02/27 00:47:29;;;;;;;11.93;6.30;;;4.70;60.00;;;;;;5061841;28;20031;-85
2022/02/27 00:49:55;;;;;;;17.53;6.50;;;4.70;60.20;;;;;;5057242;28;20486;-85
2022/02/27 00:52:22;;;;;;;9.77;4.83;;;4.60;60.40;;;;;;5057836;28;20393;-85
2022/02/27 00:54:52;;;;;;;10.43;3.77;;;4.60;60.40;;;;;;5055196;28;20413;-84
2022/02/27 00:57:19;;;;;;;9.83;3.67;;;4.50;60.50;;;;;;5071544;28;20046;-85
2022/02/27 00:59:45;;;;;;;7.60;3.60;;;4.50;60.20;;;;;;5070773;28;20108;-85
2022/02/27 01:02:12;;;;;;;14.70;4.37;;;4.50;60.10;;;;;;5057362;28;20024;-85
2022/02/27 01:04:38;;;;;;;13.73;3.97;;;4.40;60.10;;;;;;5061272;28;20025;-85
2022/02/27 01:07:04;;;;;;;10.23;4.13;;;4.40;60.10;;;;;;5056396;28;20035;-85
2022/02/27 01:09:30;;;;;;;6.43;3.77;;;4.50;60.10;;;;;;5070819;28;20078;-84
2022/02/27 01:11:56;;;;;;;14.27;5.87;;;4.50;60.10;;;;;;5055138;28;20098;-84
2022/02/27 01:14:22;;;;;;;10.40;5.10;;;4.50;60.10;;;;;;5056528;28;20037;-84
2022/02/27 01:16:47;;;;;;;10.40;5.40;;;4.50;60.00;;;;;;5069323;28;20048;-84
2022/02/27 01:19:13;;;;;;;12.07;4.83;;;4.60;60.00;;;;;;5057235;28;20087;-84
2022/02/27 01:21:39;;;;;;;9.43;4.97;;;4.50;60.00;;;;;;5060654;28;20036;-84
2022/02/27 01:24:06;;;;;;;9.17;4.40;;;4.50;60.10;;;;;;5084204;28;20036;-85
2022/02/27 01:26:32;;;;;;;6.80;3.10;;;4.50;60.10;;;;;;5066967;28;20466;-85
2022/02/27 01:29:00;;;;;;;6.87;2.57;;;4.50;59.80;;;;;;5075870;28;20024;-84
2022/02/27 01:31:25;;;;;;;4.87;2.50;;;4.60;59.60;;;;;;5069402;28;20028;-83
2022/02/27 01:33:51;;;;;;;9.70;2.47;;;4.50;59.30;;;;;;5050988;28;20025;-84
2022/02/27 01:36:17;;;;;;;9.83;3.00;;;4.50;59.20;;;;;;5059695;28;20024;-83
2022/02/27 01:38:45;;;;;;;5.10;2.63;;;4.40;59.00;;;;;;5058374;28;20048;-84
2022/02/27 01:41:12;;;;;;;6.60;2.10;;;4.40;59.10;;;;;;5066225;28;20472;-83
2022/02/27 01:43:38;;;;;;;7.80;2.90;;;4.50;59.00;;;;;;5061613;28;20369;-84
2022/02/27 01:46:06;;;;;;;7.13;2.90;;;4.50;59.00;;;;;;5044584;28;20032;-84
2022/02/27 01:48:32;;;;;;;7.70;2.70;;;4.50;58.90;;;;;;5071280;28;20405;-84
2022/02/27 01:50:58;;;;;;;6.30;2.53;;;4.50;58.80;;;;;;5061338;28;20077;-84
2022/02/27 01:53:26;;;;;;;8.80;3.10;;;4.50;58.70;;;;;;5066027;28;20074;-84
2022/02/27 01:55:53;;;;;;;8.47;2.70;;;4.50;58.70;;;;;;5049918;28;20107;-84
2022/02/27 01:58:19;;;;;;;6.17;2.43;;;4.40;58.70;;;;;;5058245;28;20024;-84
2022/02/27 02:00:44;;;;;;;6.40;2.47;;;4.50;58.60;;;;;;5053514;28;20035;-84
2022/02/27 02:03:11;;;;;;;9.87;2.57;;;4.40;58.50;;;;;;5054361;28;20056;-83
2022/02/27 02:05:37;;;;;;;9.70;3.00;;;4.40;58.60;;;;;;5046201;28;20110;-84
2022/02/27 02:08:03;;;;;;;19.47;3.37;;;4.40;58.70;;;;;;5059986;28;20513;-84
2022/02/27 02:10:29;;;;;;;7.10;2.60;;;4.40;58.70;;;;;;5063239;28;20028;-84
2022/02/27 02:12:55;;;;;;;7.53;2.87;;;4.40;58.50;;;;;;5070410;28;20039;-84
2022/02/27 02:15:21;;;;;;;10.60;3.60;;;4.40;58.60;;;;;;5061252;28;21095;-84
2022/02/27 02:17:47;;;;;;;10.90;2.83;;;4.40;58.60;;;;;;5056101;28;20482;-84
2022/02/27 02:20:18;;;;;;;7.57;2.73;;;4.40;58.70;;;;;;5054504;28;20039;-84
2022/02/27 02:22:44;;;;;;;10.10;3.03;;;4.40;58.70;;;;;;5055247;28;20035;-84
2022/02/27 02:25:10;;;;;;;5.80;2.77;;;4.50;58.80;;;;;;5056140;28;20111;-83
2022/02/27 02:27:36;;;;;;;7.57;2.70;;;4.50;58.70;;;;;;5080025;28;20012;-84
2022/02/27 02:30:03;;;;;;;8.57;3.10;;;4.50;58.70;;;;;;5061773;28;20040;-84
2022/02/27 02:32:29;;;;;;;7.73;2.97;;;4.40;58.70;;;;;;5053868;28;20547;-84
2022/02/27 02:34:54;;;;;;;7.47;3.30;;;4.40;58.70;;;;;;5062751;28;20133;-84
2022/02/27 02:37:20;;;;;;;7.70;2.90;;;4.40;58.80;;;;;;5057492;28;20024;-83
2022/02/27 02:39:46;;;;;;;7.50;2.70;;;4.40;58.90;;;;;;5056586;28;20613;-84
2022/02/27 02:42:11;;;;;;;7.63;3.00;;;4.40;58.90;;;;;;5057358;28;20028;-84
2022/02/27 02:44:39;;;;;;;6.20;2.70;;;4.40;59.00;;;;;;5073933;28;20099;-84
2022/02/27 02:47:05;;;;;;;8.47;2.50;;;4.40;58.90;;;;;;5066582;28;20025;-83
2022/02/27 02:49:31;;;;;;;13.00;3.70;;;4.40;58.90;;;;;;5071333;28;20073;-83
2022/02/27 02:51:57;;;;;;;8.93;4.00;;;4.50;59.40;;;;;;5049307;28;20522;-84
2022/02/27 02:54:23;;;;;;;11.77;4.67;;;4.50;58.90;;;;;;5071742;28;20131;-84
2022/02/27 02:56:49;;;;;;;8.77;4.37;;;4.50;58.90;;;;;;5049936;28;20028;-84
2022/02/27 02:59:15;;;;;;;12.50;4.90;;;4.50;59.10;;;;;;5055066;28;20036;-84
2022/02/27 03:01:41;;;;;;;8.53;5.20;;;4.50;59.20;;;;;;5053887;28;20413;-84
2022/02/27 03:04:07;;;;;;;12.13;5.13;;;4.50;59.40;;;;;;5053799;28;20113;-84
2022/02/27 03:06:33;;;;;;;9.60;5.67;;;4.50;59.60;;;;;;5063808;28;20028;-84
2022/02/27 03:08:59;;;;;;;13.37;4.97;;;4.50;59.80;;;;;;5074543;28;20156;-83
2022/02/27 03:11:25;;;;;;;7.97;3.43;;;4.50;59.90;;;;;;5074698;28;20070;-83
2022/02/27 03:13:51;;;;;;;7.97;3.60;;;4.50;59.80;;;;;;5056878;28;20028;-84
2022/02/27 03:16:17;;;;;;;10.00;4.20;;;4.50;59.70;;;;;;5061714;28;20020;-83
2022/02/27 03:18:43;;;;;;;15.03;3.30;;;4.50;59.90;;;;;;5056659;28;20020;-83
2022/02/27 03:21:09;;;;;;;9.33;3.97;;;4.50;59.50;;;;;;5061534;28;20091;-84
2022/02/27 03:23:35;;;;;;;16.77;4.43;;;4.40;60.00;;;;;;5046626;28;20567;-84
2022/02/27 03:26:01;;;;;;;13.87;3.83;;;4.50;59.30;;;;;;5054415;28;20504;-83
2022/02/27 03:28:27;;;;;;;9.47;3.53;;;4.50;59.20;;;;;;5054663;28;20104;-84
2022/02/27 03:30:54;;;;;;;11.33;3.50;;;4.50;59.20;;;;;;5055066;28;20055;-84
2022/02/27 03:33:20;;;;;;;10.13;4.23;;;4.50;59.20;;;;;;5073934;28;20494;-83
2022/02/27 03:35:46;;;;;;;8.73;4.13;;;4.50;59.40;;;;;;5057143;28;20123;-84
2022/02/27 03:38:12;;;;;;;8.83;5.03;;;4.50;59.50;;;;;;5055459;28;20111;-84
2022/02/27 03:40:38;;;;;;;10.97;5.27;;;4.50;59.60;;;;;;5051877;28;20025;-84
2022/02/27 03:43:04;;;;;;;11.90;5.80;;;4.50;59.70;;;;;;5053426;28;20086;-84
2022/02/27 03:45:30;;;;;;;14.83;5.73;;;4.50;59.90;;;;;;5053218;28;20021;-83
2022/02/27 03:47:56;;;;;;;10.40;5.70;;;4.50;59.90;;;;;;5062916;28;20032;-84
2022/02/27 03:50:22;;;;;;;13.53;6.50;;;4.60;60.10;;;;;;5058521;28;20028;-83
2022/02/27 03:52:48;;;;;;;12.57;6.03;;;4.50;60.30;;;;;;5057301;28;20075;-84
2022/02/27 03:55:17;;;;;;;11.17;6.43;;;4.50;60.50;;;;;;5061392;28;20060;-84
2022/02/27 03:57:42;;;;;;;13.90;6.60;;;4.50;60.70;;;;;;5089125;28;20107;-84
2022/02/27 04:00:15;;;;;;;11.17;6.77;;;4.50;60.80;;;;;;5063095;28;20052;-83
2022/02/27 04:02:42;;;;;;;11.88;6.70;;;4.40;61.00;;;;;;5051899;28;20036;-84
2022/02/27 04:05:08;;;;;;;13.73;7.67;;;4.40;61.10;;;;;;5056466;28;20033;-84
2022/02/27 04:07:34;;;;;;;16.97;7.00;;;4.40;61.30;;;;;;5072884;28;20055;-84
2022/02/27 04:10:00;;;;;;;15.17;6.80;;;4.40;61.40;;;;;;5065243;28;20029;-83
2022/02/27 04:12:26;;;;;;;16.03;6.97;;;4.40;61.50;;;;;;5071960;28;20031;-84
2022/02/27 04:14:52;;;;;;;14.67;7.27;;;4.30;61.60;;;;;;5055831;28;20036;-84
2022/02/27 04:17:18;;;;;;;12.37;7.40;;;4.30;61.60;;;;;;5056735;28;20032;-84
2022/02/27 04:19:43;;;;;;;16.67;6.80;;;4.20;61.80;;;;;;5059894;28;20619;-85
2022/02/27 04:22:09;;;;;;;10.80;6.13;;;4.30;61.90;;;;;;5056913;28;20036;-85
2022/02/27 04:24:35;;;;;;;13.87;4.93;;;4.20;61.80;;;;;;5060992;28;20077;-84
2022/02/27 04:27:01;;;;;;;7.93;4.10;;;4.10;61.80;;;;;;5078154;28;20028;-85
2022/02/27 04:29:26;;;;;;;11.07;3.90;;;4.00;61.40;;;;;;5063040;28;20024;-85
2022/02/27 04:31:52;;;;;;;7.10;3.03;;;4.00;61.40;;;;;;5074227;28;20036;-84
2022/02/27 04:34:18;;;;;;;10.83;4.70;;;4.00;61.20;;;;;;5056813;28;20037;-84
2022/02/27 04:36:44;;;;;;;11.43;4.50;;;4.00;60.90;;;;;;5057970;28;20455;-84
2022/02/27 04:39:10;;;;;;;12.07;5.07;;;3.90;61.00;;;;;;5074390;28;20032;-84
2022/02/27 04:41:35;;;;;;;8.47;4.83;;;3.90;61.00;;;;;;5054211;28;20028;-84
2022/02/27 04:44:01;;;;;;;9.53;4.83;;;4.00;61.10;;;;;;5055904;28;20025;-85
2022/02/27 04:46:27;;;;;;;12.27;5.03;;;4.00;61.10;;;;;;5049533;28;20058;-84
2022/02/27 04:48:53;;;;;;;7.77;3.47;;;4.00;61.10;;;;;;5074438;28;20033;-85
2022/02/27 04:51:18;;;;;;;11.33;3.20;;;4.00;61.10;;;;;;5051127;28;20031;-84
2022/02/27 04:53:45;;;;;;;8.17;3.40;;;4.00;60.90;;;;;;5047416;28;20060;-84
2022/02/27 04:56:11;;;;;;;11.33;4.30;;;4.00;60.80;;;;;;5065880;28;20033;-84
2022/02/27 04:58:38;;;;;;;8.57;3.60;;;4.00;60.80;;;;;;5084233;28;20025;-84
2022/02/27 05:01:03;;;;;;;9.60;3.97;;;4.00;60.70;;;;;;5071950;28;21506;-85
2022/02/27 05:03:29;;;;;;;11.33;3.63;;;4.00;60.70;;;;;;5055957;28;20028;-84
2022/02/27 05:05:55;;;;;;;8.13;3.20;;;4.00;60.60;;;;;;5054124;28;20032;-84
2022/02/27 05:08:21;;;;;;;6.10;2.87;;;4.00;60.50;;;;;;5055266;28;20037;-84
2022/02/27 05:10:46;;;;;;;6.70;3.00;;;4.00;60.40;;;;;;5065955;28;20028;-84
2022/02/27 05:13:12;;;;;;;10.80;3.33;;;4.00;60.30;;;;;;5054909;28;20025;-84
2022/02/27 05:15:38;;;;;;;4.90;2.33;;;4.00;60.00;;;;;;5053961;28;20035;-84
2022/02/27 05:18:04;;;;;;;6.97;2.60;;;4.00;59.70;;;;;;5068063;28;20025;-84
2022/02/27 05:20:29;;;;;;;7.87;2.50;;;4.00;59.60;;;;;;5066393;28;20032;-84
2022/02/27 05:22:55;;;;;;;10.27;2.87;;;4.00;59.40;;;;;;5049384;28;20056;-84
2022/02/27 05:25:22;;;;;;;9.70;2.03;;;3.90;59.10;;;;;;5049707;28;20025;-84
2022/02/27 05:27:53;;;;;;;7.20;2.23;;;3.90;59.00;;;;;;5072867;28;20474;-84
2022/02/27 05:30:20;;;;;;;7.27;1.97;;;3.80;58.90;;;;;;5074279;28;20385;-84
2022/02/27 05:32:46;;;;;;;5.63;2.00;;;3.70;58.80;;;;;;5058414;28;20036;-83
2022/02/27 05:35:12;;;;;;;4.47;2.00;;;3.70;58.80;;;;;;5053816;28;20534;-84
2022/02/27 05:37:38;;;;;;;9.67;2.10;;;3.70;58.50;;;;;;5053496;28;20075;-83
2022/02/27 05:40:05;;;;;;;7.00;2.70;;;3.70;58.60;;;;;;5066216;28;20210;-83
2022/02/27 05:42:32;;;;;;;11.63;2.80;;;3.60;58.50;;;;;;5070916;28;20039;-84
2022/02/27 05:44:58;;;;;;;7.77;2.20;;;3.60;58.60;;;;;;5054435;28;21004;-84
2022/02/27 05:47:23;;;;;;;7.67;2.90;;;3.60;58.70;;;;;;5036377;28;20032;-83
2022/02/27 05:49:49;;;;;;;8.53;2.67;;;3.60;58.70;;;;;;5051616;28;20112;-84
2022/02/27 05:52:15;;;;;;;4.90;2.77;;;3.70;58.60;;;;;;5062276;28;20034;-84
2022/02/27 05:54:40;;;;;;;12.87;4.87;;;3.70;58.50;;;;;;5054580;28;20057;-84
2022/02/27 05:57:06;;;;;;;14.53;4.80;;;3.70;58.40;;;;;;5079542;28;20029;-84
2022/02/27 05:59:32;;;;;;;32.13;8.23;;;3.70;58.20;;;;;;5049867;28;20398;-84
2022/02/27 06:01:58;;;;;;;29.97;7.83;;;3.70;58.20;;;;;;5047714;28;20031;-84
2022/02/27 06:04:23;;;;;;;29.87;8.53;;;3.70;58.10;;;;;;5070152;28;20032;-84
2022/02/27 06:06:49;;;;;;;40.40;13.10;;;3.80;58.00;;;;;;5050225;28;20082;-83
2022/02/27 06:09:15;;;;;;;65.63;19.07;;;3.80;58.00;;;;;;5061541;28;20052;-84
2022/02/27 06:11:41;;;;;;;124.03;41.33;;;3.80;57.80;;;;;;5072949;28;20033;-84
2022/02/27 06:14:07;;;;;;;107.10;36.77;;;3.80;57.70;;;;;;5055619;28;20036;-84
2022/02/27 06:16:33;;;;;;;105.83;35.33;;;3.80;57.70;;;;;;5055909;28;20131;-83
2022/02/27 06:18:59;;;;;;;39.60;13.20;;;3.80;57.60;;;;;;5072835;28;20029;-84
2022/02/27 06:21:25;;;;;;;33.33;10.03;;;3.80;57.50;;;;;;5056064;28;20078;-83
2022/02/27 06:23:51;;;;;;;19.70;7.27;;;3.80;57.40;;;;;;5061098;28;20035;-85
2022/02/27 06:26:17;;;;;;;18.87;7.77;;;3.80;57.90;;;;;;5071764;28;20028;-83
2022/02/27 06:28:43;;;;;;;27.67;12.20;;;3.80;57.20;;;;;;5061498;28;20028;-85
2022/02/27 06:31:09;;;;;;;18.97;7.43;;;3.80;57.70;;;;;;5061881;28;20032;-85
2022/02/27 06:33:35;;;;;;;17.57;7.17;;;3.90;57.30;;;;;;5054971;28;20115;-84
2022/02/27 06:36:01;;;;;;;19.83;7.10;;;3.90;57.20;;;;;;5072424;28;20035;-85
2022/02/27 06:38:27;;;;;;;11.53;4.73;;;3.80;56.90;;;;;;5056500;28;20036;-85
2022/02/27 06:40:53;;;;;;;68.20;25.07;;;3.80;56.90;;;;;;5075279;28;20481;-85
2022/02/27 06:43:18;;;;;;;74.53;26.10;;;3.80;57.00;;;;;;5058460;28;20040;-82
2022/02/27 06:45:44;;;;;;;46.00;19.07;;;3.80;56.80;;;;;;5075555;28;20024;-84
2022/02/27 06:48:10;;;;;;;37.43;15.57;;;3.90;56.90;;;;;;5065239;28;20037;-82
2022/02/27 06:50:36;;;;;;;29.30;12.60;;;3.80;56.80;;;;;;5075880;28;20512;-84
2022/02/27 06:53:01;;;;;;;39.63;15.43;;;3.90;56.90;;;;;;5055420;28;20028;-84
2022/02/27 06:55:27;;;;;;;32.10;12.60;;;3.90;56.70;;;;;;5055084;28;20028;-84
2022/02/27 06:57:53;;;;;;;19.80;6.63;;;4.00;56.80;;;;;;5058912;28;20036;-84
2022/02/27 07:00:19;;;;;;;13.53;5.37;;;4.00;56.60;;;;;;5056812;28;20040;-84
2022/02/27 07:02:46;;;;;;;26.90;6.17;;;4.10;56.60;;;;;;5051554;28;20496;-84
2022/02/27 07:05:12;;;;;;;16.70;6.17;;;4.10;56.50;;;;;;5054345;28;20402;-84
2022/02/27 07:07:37;;;;;;;16.63;5.53;;;4.10;56.50;;;;;;5054003;28;20037;-85
2022/02/27 07:10:06;;;;;;;12.27;4.60;;;4.10;56.60;;;;;;5068517;28;20066;-82
2022/02/27 07:12:34;;;;;;;8.17;4.13;;;4.10;56.60;;;;;;5066094;28;20070;-84
2022/02/27 07:15:00;;;;;;;20.37;6.60;;;4.20;56.50;;;;;;5054228;28;20033;-83
2022/02/27 07:17:26;;;;;;;15.23;6.50;;;4.20;56.50;;;;;;5056381;28;20032;-84
2022/02/27 07:19:53;;;;;;;18.57;7.63;;;4.10;56.40;;;;;;5069155;28;20025;-84
2022/02/27 07:22:19;;;;;;;15.47;5.77;;;4.20;56.50;;;;;;5048752;28;20028;-85
2022/02/27 07:24:46;;;;;;;18.40;5.73;;;4.20;56.50;;;;;;5057319;28;20031;-84
2022/02/27 07:27:12;;;;;;;12.77;4.80;;;4.20;56.50;;;;;;5054328;28;20017;-83
2022/02/27 07:29:40;;;;;;;10.97;4.90;;;4.30;56.40;;;;;;5072734;28;20020;-84
2022/02/27 07:32:06;;;;;;;13.50;5.23;;;4.30;56.40;;;;;;5070873;28;20081;-84
2022/02/27 07:34:32;;;;;;;13.17;6.50;;;4.30;56.40;;;;;;5054562;28;20393;-84
2022/02/27 07:36:59;;;;;;;14.30;5.83;;;4.30;56.30;;;;;;5072581;28;20020;-85
2022/02/27 07:39:26;;;;;;;13.60;5.63;;;4.30;56.40;;;;;;5066597;28;20029;-86
2022/02/27 07:41:52;;;;;;;10.33;4.70;;;4.40;56.70;;;;;;5068766;28;20102;-85
2022/02/27 07:44:18;;;;;;;6.37;4.30;;;4.30;56.80;;;;;;5080595;28;20020;-85
2022/02/27 07:46:44;;;;;;;17.00;4.50;;;4.30;56.90;;;;;;5052906;28;20081;-85
2022/02/27 07:49:10;;;;;;;8.40;3.47;;;4.30;56.90;;;;;;5072892;28;20103;-85
2022/02/27 07:51:36;;;;;;;8.67;3.83;;;4.30;56.90;;;;;;5064222;28;20481;-85
2022/02/27 07:54:02;;;;;;;10.40;4.00;;;4.20;56.80;;;;;;5054867;28;20036;-85
2022/02/27 07:56:28;;;;;;;7.93;3.90;;;4.10;56.80;;;;;;5074270;28;20050;-85
2022/02/27 07:58:55;;;;;;;8.77;4.00;;;4.20;56.80;;;;;;5057548;28;20103;-85
2022/02/27 08:01:21;;;;;;;7.50;3.37;;;4.20;56.90;;;;;;5067940;28;20035;-86
2022/02/27 08:03:47;;;;;;;7.33;3.80;;;4.20;56.80;;;;;;5055078;28;20048;-85
2022/02/27 08:06:13;;;;;;;12.20;4.07;;;4.20;56.80;;;;;;5055971;28;20031;-84
2022/02/27 08:08:39;;;;;;;9.07;4.00;;;4.30;56.60;;;;;;5060973;28;20071;-84
2022/02/27 08:11:09;;;;;;;9.90;3.77;;;4.30;56.50;;;;;;5036432;28;20033;-83
2022/02/27 08:13:35;;;;;;;8.57;3.63;;;4.30;56.60;;;;;;5055236;28;20086;-84
2022/02/27 08:16:01;;;;;;;11.80;4.33;;;4.20;56.50;;;;;;5051199;28;20477;-84
2022/02/27 08:18:29;;;;;;;8.37;4.00;;;4.20;56.50;;;;;;5051355;28;20033;-83
2022/02/27 08:20:55;;;;;;;16.30;5.33;;;4.30;56.50;;;;;;5057089;28;20033;-84
2022/02/27 08:23:22;;;;;;;6.80;3.87;;;4.30;56.40;;;;;;5067634;28;20481;-83
2022/02/27 08:25:49;;;;;;;10.27;4.40;;;4.30;56.40;;;;;;5055732;28;20029;-83
2022/02/27 08:28:16;;;;;;;12.17;4.17;;;4.30;56.20;;;;;;5063070;28;20103;-82
2022/02/27 08:30:42;;;;;;;12.10;5.10;;;4.40;56.20;;;;;;5074260;28;20103;-82
2022/02/27 08:33:08;;;;;;;8.33;3.47;;;4.50;56.10;;;;;;5063396;28;20452;-84
2022/02/27 08:35:34;;;;;;;10.43;4.17;;;4.50;55.90;;;;;;5056041;28;20056;-84
2022/02/27 08:38:00;;;;;;;13.33;4.50;;;4.40;55.80;;;;;;5073664;28;20551;-82
2022/02/27 08:40:26;;;;;;;9.63;3.93;;;4.50;56.00;;;;;;5053250;28;20032;-82
2022/02/27 08:42:56;;;;;;;9.97;4.77;;;4.50;56.00;;;;;;5074255;28;20374;-82
2022/02/27 08:45:23;;;;;;;15.93;5.30;;;4.50;56.00;;;;;;5074524;28;20029;-84
2022/02/27 08:47:49;;;;;;;12.07;5.03;;;4.60;56.00;;;;;;5059328;28;20033;-83
2022/02/27 08:50:15;;;;;;;8.87;4.93;;;4.50;55.90;;;;;;5075205;28;20035;-83
2022/02/27 08:52:41;;;;;;;14.37;5.90;;;4.60;55.90;;;;;;5069628;28;20025;-84
2022/02/27 08:55:08;;;;;;;13.00;6.20;;;4.70;55.90;;;;;;5051726;28;20111;-84
2022/02/27 08:57:34;;;;;;;11.23;6.13;;;4.90;56.60;;;;;;5074853;28;20039;-84
2022/02/27 09:00:00;;;;;;;16.27;6.80;;;5.30;56.70;;;;;;5046278;28;20029;-84
2022/02/27 09:02:25;;;;;;;21.23;7.30;;;5.60;56.60;;;;;;5055933;28;20021;-83
2022/02/27 09:04:51;;;;;;;17.47;6.90;;;5.70;56.30;;;;;;5073741;28;20111;-84
2022/02/27 09:07:18;;;;;;;16.33;7.30;;;5.80;56.40;;;;;;5073220;28;20033;-85
2022/02/27 09:09:44;;;;;;;15.80;6.57;;;5.80;55.90;;;;;;5073834;28;20029;-83
2022/02/27 09:12:11;;;;;;;11.60;5.70;;;5.60;55.60;;;;;;5056166;28;20051;-83
2022/02/27 09:14:42;;;;;;;23.77;11.43;;;5.60;55.80;;;;;;5056337;28;20029;-83
2022/02/27 09:17:08;;;;;;;20.53;8.50;;;5.60;55.70;;;;;;5074071;28;20028;-83
2022/02/27 09:19:34;;;;;;;13.53;6.23;;;5.60;55.50;;;;;;5074185;28;20032;-84
2022/02/27 09:21:59;;;;;;;16.97;7.17;;;5.50;55.20;;;;;;5072482;28;20031;-83
2022/02/27 09:24:25;;;;;;;12.47;6.13;;;5.40;55.20;;;;;;5056166;28;20048;-84
2022/02/27 09:26:51;;;;;;;13.40;5.90;;;5.40;55.30;;;;;;5072883;28;20485;-83
2022/02/27 09:29:16;;;;;;;14.33;7.10;;;5.50;55.40;;;;;;5072662;28;20025;-84
2022/02/27 09:31:42;;;;;;;14.40;6.73;;;5.50;55.10;;;;;;5072701;28;20060;-83
2022/02/27 09:34:09;;;;;;;14.03;6.27;;;5.50;55.00;;;;;;5064309;28;20025;-83
2022/02/27 09:36:35;;;;;;;12.80;7.03;;;5.60;55.30;;;;;;5072867;28;20527;-84
2022/02/27 09:39:01;;;;;;;12.17;6.60;;;6.00;55.50;;;;;;5073785;28;20017;-84
2022/02/27 09:41:27;;;;;;;12.33;5.80;;;6.30;54.80;;;;;;5055699;28;20025;-83
2022/02/27 09:43:56;;;;;;;15.37;6.40;;;6.80;53.80;;;;;;5055658;28;20024;-84
2022/02/27 09:46:22;;;;;;;14.03;6.83;;;7.00;53.50;;;;;;5072416;28;20021;-84
2022/02/27 09:48:49;;;;;;;15.30;6.97;;;7.40;53.50;;;;;;5055835;28;20432;-84
2022/02/27 09:51:15;;;;;;;16.77;7.97;;;7.40;52.90;;;;;;5072280;28;20029;-84
2022/02/27 09:53:41;;;;;;;15.57;8.15;;;7.50;53.30;;;;;;5055520;28;20040;-84
2022/02/27 09:56:06;;;;;;;16.80;7.17;;;7.70;53.80;;;;;;5061650;28;20078;-83
2022/02/27 09:58:32;;;;;;;11.73;6.43;;;7.70;53.20;;;;;;5073917;28;20509;-83
2022/02/27 10:00:58;;;;;;;13.33;6.13;;;7.40;52.90;;;;;;5073408;28;20093;-84
2022/02/27 10:03:34;;;;;;;16.67;8.33;;;7.20;52.80;;;;;;5073360;28;20033;-84
2022/02/27 10:06:08;;;;;;;13.90;6.80;;;7.10;53.10;;;;;;5066730;28;20036;-84
2022/02/27 10:08:48;;;;;;;18.40;7.50;;;7.10;53.20;;;;;;5055289;28;20202;-84
2022/02/27 10:11:18;;;;;;;16.10;6.23;;;7.10;52.80;;;;;;5073380;28;20038;-84
2022/02/27 10:13:46;;;;;;;11.87;6.13;;;7.00;52.70;;;;;;5055115;28;20032;-83
2022/02/27 10:16:17;;;;;;;12.47;5.80;;;6.90;52.50;;;;;;5054685;28;20614;-84
2022/02/27 10:18:45;;;;;;;14.40;5.17;;;7.00;52.70;;;;;;5055118;28;20033;-83
2022/02/27 10:21:21;;;;;;;11.40;5.73;;;7.10;52.60;;;;;;5071718;28;20074;-84
2022/02/27 10:24:00;;;;;;;23.17;8.43;;;7.20;52.40;;;;;;5068481;28;20039;-84
2022/02/27 10:26:30;;;;;;;24.67;9.47;;;7.30;51.90;;;;;;5054915;28;20051;-83
2022/02/27 10:29:15;;;;;;;14.83;6.97;;;7.10;52.10;;;;;;5055171;28;20025;-84
2022/02/27 10:31:44;;;;;;;11.67;4.90;;;7.10;52.50;;;;;;5072994;28;20032;-84
2022/02/27 10:34:25;;;;;;;12.03;4.60;;;7.20;52.50;;;;;;5052759;28;20025;-84
2022/02/27 10:36:51;;;;;;;8.50;4.17;;;7.40;52.00;;;;;;5052851;28;20033;-84
2022/02/27 10:39:43;;;;;;;9.40;4.53;;;7.50;51.50;;;;;;5035400;28;20021;-84
2022/02/27 10:42:16;;;;;;;8.73;3.88;;;7.50;51.00;;;;;;5034893;28;20086;-83
2022/02/27 10:45:06;;;;;;;8.23;4.47;;;7.50;51.00;;;;;;5051657;28;20021;-83
2022/02/27 10:47:36;;;;;;;9.27;4.47;;;7.40;50.60;;;;;;5045227;28;20020;-84
2022/02/27 10:50:14;;;;;;;6.70;4.27;;;7.40;50.60;;;;;;5054825;28;20075;-83
2022/02/27 10:52:46;;;;;;;10.60;5.43;;;7.50;50.50;;;;;;5054776;28;20386;-83
2022/02/27 10:55:13;;;;;;;45.13;17.15;;;7.60;50.60;;;;;;5055217;28;20025;-83
2022/02/27 10:57:46;;;;;;;23.43;9.17;;;7.50;50.40;;;;;;5055038;28;20035;-84
2022/02/27 11:00:19;;;;;;;23.70;10.03;;;7.60;50.70;;;;;;5051405;28;20036;-84
2022/02/27 11:02:45;;;;;;;;;;;7.70;50.60;;;;;;5035119;28;20029;-84
2022/02/27 11:05:13;;;;;;;13.40;7.10;;;8.00;50.60;;;;;;5034687;28;19912;-84
2022/02/27 11:07:45;;;;;;;17.33;6.70;;;8.20;50.10;;;;;;5034674;28;20132;-83
2022/02/27 11:10:14;;;;;;;10.73;4.73;;;8.50;49.70;;;;;;5034473;28;20382;-83
2022/02/27 11:12:40;;;;;;;10.40;4.10;;;8.80;49.40;;;;;;5040431;28;20470;-84
2022/02/27 11:15:09;;;;;;;10.20;4.87;;;9.10;49.10;;;;;;5054221;28;20055;-84
2022/02/27 11:17:35;;;;;;;8.10;5.00;;;9.20;48.30;;;;;;5054518;28;20374;-84
2022/02/27 11:20:05;;;;;;;13.13;5.00;;;9.30;48.20;;;;;;5054287;28;20021;-83
2022/02/27 11:22:32;;;;;;;8.70;4.40;;;9.40;48.30;;;;;;5072279;28;20021;-84
2022/02/27 11:24:58;;;;;;;8.80;4.80;;;9.50;47.80;;;;;;5054524;28;20024;-84
2022/02/27 11:27:27;;;;;;;13.23;5.63;;;9.70;47.40;;;;;;5054448;28;20227;-84
2022/02/27 11:29:57;;;;;;;8.90;4.70;;;9.90;46.90;;;;;;5058347;28;20021;-83
2022/02/27 11:32:24;;;;;;;9.93;4.17;;;10.00;46.40;;;;;;5076186;28;20096;-83
2022/02/27 11:34:50;;;;;;;12.00;5.33;;;10.10;45.90;;;;;;5058411;28;20028;-84
2022/02/27 11:37:35;;;;;;;9.27;4.03;;;10.00;45.60;;;;;;5058214;28;20111;-83
2022/02/27 11:40:28;;;;;;;7.30;3.50;;;10.10;45.30;;;;;;5058224;28;20025;-84
2022/02/27 11:42:55;;;;;;;8.60;3.40;;;10.20;45.00;;;;;;5058119;28;20024;-84
2022/02/27 11:45:41;;;;;;;6.03;3.00;;;10.30;44.90;;;;;;5076041;28;20100;-84
2022/02/27 11:48:08;;;;;;;8.27;4.63;;;10.30;44.50;;;;;;5057841;28;20021;-82
2022/02/27 11:50:40;;;;;;;7.47;3.20;;;10.40;44.50;;;;;;5058102;28;20024;-84
2022/02/27 11:53:24;;;;;;;6.05;2.83;;;10.30;44.10;;;;;;5074784;28;20386;-83
2022/02/27 11:55:51;;;;;;;8.33;3.10;;;10.30;43.70;;;;;;5058093;28;20432;-85
2022/02/27 11:58:40;;;;;;;5.57;2.80;;;10.30;43.70;;;;;;5076032;28;20047;-84
2022/02/27 12:01:07;;;;;;;5.43;3.43;;;10.40;43.50;;;;;;5055356;28;20025;-84
2022/02/27 12:03:32;;;;;;;7.17;3.77;;;10.40;43.10;;;;;;5054351;28;20036;-84
2022/02/27 12:06:04;;;;;;;8.13;3.67;;;10.30;43.00;;;;;;5054380;28;20029;-84
2022/02/27 12:08:41;;;;;;;9.32;4.70;;;10.20;42.60;;;;;;5037703;28;20037;-84
2022/02/27 12:11:25;;;;;;;8.13;3.87;;;10.10;43.00;;;;;;5038227;28;20075;-84
2022/02/27 12:13:59;;;;;;;7.90;3.10;;;10.20;42.70;;;;;;5054624;28;20502;-84
2022/02/27 12:16:37;;;;;;;10.03;3.93;;;10.00;42.70;;;;;;5038289;28;20035;-84
2022/02/27 12:19:18;;;;;;;5.37;2.13;;;10.00;42.10;;;;;;5041156;28;20025;-83
2022/02/27 12:21:44;;;;;;;7.40;2.93;;;10.00;42.50;;;;;;5045872;28;20033;-84
2022/02/27 12:24:11;;;;;;;4.93;2.57;;;10.20;42.40;;;;;;5045716;28;20539;-84
2022/02/27 12:26:37;;;;;;;4.70;2.63;;;10.10;41.50;;;;;;5063762;28;20017;-84
2022/02/27 12:29:07;;;;;;;5.27;2.23;;;10.10;41.60;;;;;;5069917;28;20029;-82
2022/02/27 12:31:35;;;;;;;5.57;2.10;;;10.30;41.40;;;;;;5074299;28;20049;-81
2022/02/27 12:34:16;;;;;;;9.73;3.50;;;10.50;41.00;;;;;;5056997;28;20032;-83
2022/02/27 12:36:42;;;;;;;6.90;2.53;;;10.40;39.70;;;;;;5038387;28;20033;-82
2022/02/27 12:39:10;;;;;;;4.63;2.07;;;10.30;40.40;;;;;;5053933;28;20029;-83
2022/02/27 12:41:39;;;;;;;3.60;2.00;;;10.20;40.50;;;;;;5060493;28;20036;-83
2022/02/27 12:44:07;;;;;;;6.67;2.33;;;10.00;40.30;;;;;;5065874;28;20115;-83
2022/02/27 12:46:33;;;;;;;4.00;2.17;;;9.90;40.20;;;;;;5057482;28;20111;-83
2022/02/27 12:51:44;;;;;;;4.67;1.73;;;10.30;40.20;;;;;;5059351;28;20509;-83
2022/02/27 12:54:30;;;;;;;4.50;2.47;;;10.50;40.20;;;;;;5056944;28;20025;-83